sensor_id;sensor_type;location;lat;lon;timestamp;pressure;altitude;pressure_sealevel;temperature;humidity
11605;BME280;5858;43.076;25.626;2023-02-18T00:01:13;99928.50;;;3.88;79.62
11605;BME280;5858;43.076;25.626;2023-02-18T00:03:40;99978.25;;;4.05;79.78
11605;BME280;5858;43.076;25.626;2023-02-18T00:06:12;99920.56;;;3.77;79.87
11605;BME280;5858;43.076;25.626;2023-02-18T00:08:41;99956.66;;;3.89;79.40
11605;BME280;5858;43.076;25.626;2023-02-18T00:11:10;99919.13;;;3.84;79.79
11605;BME280;5858;43.076;25.626;2023-02-18T00:13:37;99842.41;;;3.30;79.90
11605;BME280;5858;43.076;25.626;2023-02-18T00:16:06;99883.31;;;3.69;79.69
11605;BME280;5858;43.076;25.626;2023-02-18T00:18:33;99936.78;;;3.95;79.70
11605;BME280;5858;43.076;25.626;2023-02-18T00:21:02;99827.50;;;3.29;79.74
11605;BME280;5858;43.076;25.626;2023-02-18T00:23:29;99840.84;;;3.38;79.39
11605;BME280;5858;43.076;25.626;2023-02-18T00:26:17;99835.69;;;3.37;79.57
11605;BME280;5858;43.076;25.626;2023-02-18T00:28:45;99898.94;;;3.72;79.46
11605;BME280;5858;43.076;25.626;2023-02-18T00:31:15;99921.19;;;3.81;79.70
11605;BME280;5858;43.076;25.626;2023-02-18T00:33:43;99924.31;;;3.74;80.46
11605;BME280;5858;43.076;25.626;2023-02-18T00:36:12;99841.22;;;3.23;80.25
11605;BME280;5858;43.076;25.626;2023-02-18T00:38:43;99864.53;;;3.40;80.51
11605;BME280;5858;43.076;25.626;2023-02-18T00:41:10;99828.78;;;3.02;80.82
11605;BME280;5858;43.076;25.626;2023-02-18T00:43:39;99905.44;;;3.68;80.13
11605;BME280;5858;43.076;25.626;2023-02-18T00:46:06;99917.25;;;3.64;81.09
11605;BME280;5858;43.076;25.626;2023-02-18T00:48:33;99906.78;;;3.62;81.53
11605;BME280;5858;43.076;25.626;2023-02-18T00:51:01;99843.19;;;3.09;82.19
11605;BME280;5858;43.076;25.626;2023-02-18T00:53:29;99897.78;;;3.54;82.44
11605;BME280;5858;43.076;25.626;2023-02-18T00:55:56;99846.84;;;3.29;81.95
11605;BME280;5858;43.076;25.626;2023-02-18T00:58:23;99899.44;;;3.66;82.12
11605;BME280;5858;43.076;25.626;2023-02-18T01:00:53;99859.13;;;3.41;81.64
11605;BME280;5858;43.076;25.626;2023-02-18T01:03:20;99793.81;;;2.99;81.47
11605;BME280;5858;43.076;25.626;2023-02-18T01:05:48;99867.97;;;3.52;80.71
11605;BME280;5858;43.076;25.626;2023-02-18T01:08:17;99850.59;;;3.38;80.48
11605;BME280;5858;43.076;25.626;2023-02-18T01:10:45;99894.44;;;3.52;81.07
11605;BME280;5858;43.076;25.626;2023-02-18T01:13:14;99813.84;;;3.12;80.73
11605;BME280;5858;43.076;25.626;2023-02-18T01:15:41;99859.88;;;3.32;81.59
11605;BME280;5858;43.076;25.626;2023-02-18T01:18:10;99819.88;;;3.03;81.96
11605;BME280;5858;43.076;25.626;2023-02-18T01:20:40;99857.56;;;3.39;81.78
11605;BME280;5858;43.076;25.626;2023-02-18T01:23:08;99805.47;;;3.07;81.86
11605;BME280;5858;43.076;25.626;2023-02-18T01:25:35;99862.13;;;3.37;82.27
11605;BME280;5858;43.076;25.626;2023-02-18T01:28:04;99783.03;;;2.68;81.93
11605;BME280;5858;43.076;25.626;2023-02-18T01:30:31;99856.38;;;3.32;81.92
11605;BME280;5858;43.076;25.626;2023-02-18T01:32:59;99834.16;;;3.12;82.26
11605;BME280;5858;43.076;25.626;2023-02-18T01:35:27;99863.94;;;3.36;81.92
11605;BME280;5858;43.076;25.626;2023-02-18T01:37:55;99844.59;;;3.36;81.94
11605;BME280;5858;43.076;25.626;2023-02-18T01:40:25;99849.38;;;3.31;81.78
11605;BME280;5858;43.076;25.626;2023-02-18T01:42:52;99850.72;;;3.25;81.98
11605;BME280;5858;43.076;25.626;2023-02-18T01:48:37;99840.63;;;3.19;82.35
11605;BME280;5858;43.076;25.626;2023-02-18T01:51:11;99767.78;;;2.72;82.79
11605;BME280;5858;43.076;25.626;2023-02-18T01:53:44;99840.63;;;3.19;83.08
11605;BME280;5858;43.076;25.626;2023-02-18T01:56:17;99823.72;;;3.10;83.29
11605;BME280;5858;43.076;25.626;2023-02-18T01:58:46;99834.63;;;3.17;83.22
11605;BME280;5858;43.076;25.626;2023-02-18T02:01:14;99851.59;;;3.14;82.93
11605;BME280;5858;43.076;25.626;2023-02-18T02:03:41;99762.66;;;2.59;82.92
11605;BME280;5858;43.076;25.626;2023-02-18T02:06:15;99838.03;;;3.08;82.96
11605;BME280;5858;43.076;25.626;2023-02-18T02:08:44;99738.78;;;2.38;82.50
11605;BME280;5858;43.076;25.626;2023-02-18T02:11:21;99753.28;;;2.55;82.60
11605;BME280;5858;43.076;25.626;2023-02-18T02:14:12;99834.41;;;3.09;82.94
11605;BME280;5858;43.076;25.626;2023-02-18T02:16:44;99791.66;;;2.81;82.57
11605;BME280;5858;43.076;25.626;2023-02-18T02:19:32;99739.34;;;2.31;82.20
11605;BME280;5858;43.076;25.626;2023-02-18T02:22:22;99803.69;;;2.74;82.47
11605;BME280;5858;43.076;25.626;2023-02-18T02:25:18;99832.84;;;3.06;83.01
11605;BME280;5858;43.076;25.626;2023-02-18T02:28:44;99806.81;;;2.79;83.00
11605;BME280;5858;43.076;25.626;2023-02-18T02:34:54;99828.78;;;3.02;83.36
11605;BME280;5858;43.076;25.626;2023-02-18T02:37:28;99714.06;;;2.39;82.75
11605;BME280;5858;43.076;25.626;2023-02-18T02:40:06;99808.38;;;2.93;83.16
11605;BME280;5858;43.076;25.626;2023-02-18T02:42:44;99818.09;;;2.93;83.36
11605;BME280;5858;43.076;25.626;2023-02-18T02:45:18;99700.97;;;2.38;82.58
11605;BME280;5858;43.076;25.626;2023-02-18T02:47:50;99693.28;;;2.12;83.10
11605;BME280;5858;43.076;25.626;2023-02-18T02:50:26;99753.41;;;2.53;82.48
11605;BME280;5858;43.076;25.626;2023-02-18T02:52:58;99700.97;;;2.27;82.53
11605;BME280;5858;43.076;25.626;2023-02-18T02:55:26;99716.69;;;2.28;82.87
11605;BME280;5858;43.076;25.626;2023-02-18T02:57:54;99772.13;;;2.62;83.55
11605;BME280;5858;43.076;25.626;2023-02-18T03:00:30;99834.06;;;3.02;83.28
11605;BME280;5858;43.076;25.626;2023-02-18T03:03:26;99828.06;;;3.00;83.83
11605;BME280;5858;43.076;25.626;2023-02-18T03:06:13;99814.38;;;2.95;83.21
11605;BME280;5858;43.076;25.626;2023-02-18T03:08:51;99818.69;;;2.96;82.94
11605;BME280;5858;43.076;25.626;2023-02-18T03:11:21;99768.41;;;2.64;83.15
11605;BME280;5858;43.076;25.626;2023-02-18T03:13:55;99772.22;;;2.71;82.85
11605;BME280;5858;43.076;25.626;2023-02-18T03:16:32;99847.28;;;3.02;82.74
11605;BME280;5858;43.076;25.626;2023-02-18T03:19:08;99706.00;;;2.30;82.75
11605;BME280;5858;43.076;25.626;2023-02-18T03:21:41;99759.19;;;2.47;83.33
11605;BME280;5858;43.076;25.626;2023-02-18T03:24:14;99617.00;;;1.76;83.22
11605;BME280;5858;43.076;25.626;2023-02-18T03:26:47;99623.94;;;1.88;83.39
11605;BME280;5858;43.076;25.626;2023-02-18T03:29:17;99813.16;;;2.99;83.29
11605;BME280;5858;43.076;25.626;2023-02-18T03:31:49;99589.56;;;1.67;82.96
11605;BME280;5858;43.076;25.626;2023-02-18T03:34:23;99851.97;;;2.99;82.88
11605;BME280;5858;43.076;25.626;2023-02-18T03:36:54;99794.44;;;2.80;83.20
11605;BME280;5858;43.076;25.626;2023-02-18T03:39:26;99725.91;;;2.34;83.03
11605;BME280;5858;43.076;25.626;2023-02-18T03:41:54;99617.84;;;1.76;82.97
11605;BME280;5858;43.076;25.626;2023-02-18T03:44:23;99830.09;;;3.08;83.02
11605;BME280;5858;43.076;25.626;2023-02-18T03:46:51;99723.88;;;2.48;83.11
11605;BME280;5858;43.076;25.626;2023-02-18T03:49:18;99832.00;;;3.17;82.86
11605;BME280;5858;43.076;25.626;2023-02-18T03:51:45;99775.00;;;2.70;82.51
11605;BME280;5858;43.076;25.626;2023-02-18T03:54:14;99852.66;;;3.23;82.44
11605;BME280;5858;43.076;25.626;2023-02-18T03:56:41;99752.28;;;2.78;82.75
11605;BME280;5858;43.076;25.626;2023-02-18T03:59:09;99735.84;;;2.64;82.56
11605;BME280;5858;43.076;25.626;2023-02-18T04:01:37;99754.22;;;2.88;82.33
11605;BME280;5858;43.076;25.626;2023-02-18T04:04:04;99811.00;;;3.04;82.78
11605;BME280;5858;43.076;25.626;2023-02-18T04:06:31;99782.31;;;2.77;83.47
11605;BME280;5858;43.076;25.626;2023-02-18T04:08:58;99711.88;;;2.33;83.30
11605;BME280;5858;43.076;25.626;2023-02-18T04:11:27;99770.66;;;2.80;83.36
11605;BME280;5858;43.076;25.626;2023-02-18T04:13:54;99724.47;;;2.52;83.31
11605;BME280;5858;43.076;25.626;2023-02-18T04:16:21;99807.06;;;2.88;83.71
11605;BME280;5858;43.076;25.626;2023-02-18T04:18:48;99810.16;;;2.81;84.79
11605;BME280;5858;43.076;25.626;2023-02-18T04:21:15;99802.63;;;2.88;84.41
11605;BME280;5858;43.076;25.626;2023-02-18T04:23:42;99802.13;;;2.94;84.31
11605;BME280;5858;43.076;25.626;2023-02-18T04:26:09;99606.22;;;1.68;84.63
11605;BME280;5858;43.076;25.626;2023-02-18T04:28:38;99705.53;;;2.25;84.54
11605;BME280;5858;43.076;25.626;2023-02-18T04:31:05;99802.84;;;2.96;83.80
11605;BME280;5858;43.076;25.626;2023-02-18T04:33:32;99745.59;;;2.63;83.99
11605;BME280;5858;43.076;25.626;2023-02-18T04:36:00;99710.69;;;2.37;84.15
11605;BME280;5858;43.076;25.626;2023-02-18T04:38:28;99725.06;;;2.56;83.62
11605;BME280;5858;43.076;25.626;2023-02-18T04:40:55;99723.41;;;2.43;84.00
11605;BME280;5858;43.076;25.626;2023-02-18T04:43:22;99782.41;;;2.98;84.33
11605;BME280;5858;43.076;25.626;2023-02-18T04:45:51;99786.34;;;3.04;83.81
11605;BME280;5858;43.076;25.626;2023-02-18T04:48:18;99770.63;;;3.02;83.73
11605;BME280;5858;43.076;25.626;2023-02-18T04:50:45;99748.78;;;2.78;84.21
11605;BME280;5858;43.076;25.626;2023-02-18T04:53:12;99746.28;;;2.88;84.25
11605;BME280;5858;43.076;25.626;2023-02-18T04:55:39;99766.44;;;3.00;84.32
11605;BME280;5858;43.076;25.626;2023-02-18T04:58:06;99748.53;;;2.92;84.84
11605;BME280;5858;43.076;25.626;2023-02-18T05:00:34;99777.94;;;3.10;84.93
11605;BME280;5858;43.076;25.626;2023-02-18T05:03:05;99682.06;;;2.65;84.24
11605;BME280;5858;43.076;25.626;2023-02-18T05:05:32;99734.88;;;2.87;84.54
11605;BME280;5858;43.076;25.626;2023-02-18T05:08:00;99696.47;;;2.61;83.85
11605;BME280;5858;43.076;25.626;2023-02-18T05:10:28;99743.13;;;2.94;84.09
11605;BME280;5858;43.076;25.626;2023-02-18T05:12:55;99810.72;;;3.19;83.98
11605;BME280;5858;43.076;25.626;2023-02-18T05:15:27;99782.34;;;3.21;83.64
11605;BME280;5858;43.076;25.626;2023-02-18T05:17:54;99775.97;;;3.23;83.60
11605;BME280;5858;43.076;25.626;2023-02-18T05:20:23;99773.44;;;3.33;83.88
11605;BME280;5858;43.076;25.626;2023-02-18T05:22:51;99670.25;;;2.80;83.29
11605;BME280;5858;43.076;25.626;2023-02-18T05:25:22;99778.22;;;3.39;83.78
11605;BME280;5858;43.076;25.626;2023-02-18T05:27:53;99709.66;;;3.15;83.14
11605;BME280;5858;43.076;25.626;2023-02-18T05:30:35;99728.59;;;3.31;82.94
11605;BME280;5858;43.076;25.626;2023-02-18T05:33:05;99703.28;;;3.17;82.69
11605;BME280;5858;43.076;25.626;2023-02-18T05:35:34;99693.41;;;3.20;82.51
11605;BME280;5858;43.076;25.626;2023-02-18T05:38:02;99658.75;;;3.02;82.44
11605;BME280;5858;43.076;25.626;2023-02-18T05:40:32;99772.03;;;3.70;82.83
11605;BME280;5858;43.076;25.626;2023-02-18T05:43:03;99680.00;;;3.11;82.09
11605;BME280;5858;43.076;25.626;2023-02-18T05:45:31;99636.59;;;3.14;81.67
11605;BME280;5858;43.076;25.626;2023-02-18T05:47:58;99646.59;;;3.10;82.48
11605;BME280;5858;43.076;25.626;2023-02-18T05:50:26;99627.22;;;2.89;82.37
11605;BME280;5858;43.076;25.626;2023-02-18T05:53:06;99770.25;;;3.92;81.90
11605;BME280;5858;43.076;25.626;2023-02-18T05:55:33;99718.97;;;3.72;81.63
11605;BME280;5858;43.076;25.626;2023-02-18T05:58:05;99753.06;;;4.07;82.15
11605;BME280;5858;43.076;25.626;2023-02-18T06:01:06;99569.53;;;2.94;82.29
11605;BME280;5858;43.076;25.626;2023-02-18T06:03:27;99640.34;;;3.53;81.60
11605;BME280;5858;43.076;25.626;2023-02-18T06:06:08;99551.22;;;3.02;82.19
11605;BME280;5858;43.076;25.626;2023-02-18T06:08:37;99694.19;;;3.94;82.17
11605;BME280;5858;43.076;25.626;2023-02-18T06:11:04;99678.06;;;3.76;82.80
11605;BME280;5858;43.076;25.626;2023-02-18T06:13:32;99646.81;;;3.70;83.33
11605;BME280;5858;43.076;25.626;2023-02-18T06:15:59;99680.75;;;4.16;83.37
11605;BME280;5858;43.076;25.626;2023-02-18T06:18:26;99560.38;;;3.40;82.69
11605;BME280;5858;43.076;25.626;2023-02-18T06:20:54;99682.94;;;4.32;82.96
11605;BME280;5858;43.076;25.626;2023-02-18T06:23:21;99667.59;;;4.35;82.74
11605;BME280;5858;43.076;25.626;2023-02-18T06:26:00;99703.50;;;4.68;82.76
11605;BME280;5858;43.076;25.626;2023-02-18T06:28:27;99724.25;;;5.03;81.75
11605;BME280;5858;43.076;25.626;2023-02-18T06:30:57;99693.78;;;4.79;81.14
11605;BME280;5858;43.076;25.626;2023-02-18T06:33:29;99737.25;;;5.26;81.25
11605;BME280;5858;43.076;25.626;2023-02-18T06:35:58;99635.63;;;4.77;80.76
11605;BME280;5858;43.076;25.626;2023-02-18T06:38:25;99641.06;;;4.85;80.78
11605;BME280;5858;43.076;25.626;2023-02-18T06:40:53;99705.41;;;5.35;79.87
11605;BME280;5858;43.076;25.626;2023-02-18T06:43:22;99568.47;;;4.67;80.02
11605;BME280;5858;43.076;25.626;2023-02-18T06:45:49;99569.59;;;4.64;80.04
11605;BME280;5858;43.076;25.626;2023-02-18T06:48:17;99637.41;;;5.34;79.78
11605;BME280;5858;43.076;25.626;2023-02-18T06:50:44;99673.66;;;5.73;79.67
11605;BME280;5858;43.076;25.626;2023-02-18T06:53:11;99591.03;;;5.38;79.46
11605;BME280;5858;43.076;25.626;2023-02-18T06:55:43;99673.59;;;6.02;79.69
11605;BME280;5858;43.076;25.626;2023-02-18T06:58:12;99616.53;;;5.59;79.69
11605;BME280;5858;43.076;25.626;2023-02-18T07:00:41;99674.69;;;6.09;79.48
11605;BME280;5858;43.076;25.626;2023-02-18T07:03:10;99693.72;;;6.41;79.62
11605;BME280;5858;43.076;25.626;2023-02-18T07:05:38;99685.69;;;6.51;79.93
11605;BME280;5858;43.076;25.626;2023-02-18T07:08:07;99640.38;;;6.25;79.32
11605;BME280;5858;43.076;25.626;2023-02-18T07:10:34;99596.09;;;6.16;78.29
11605;BME280;5858;43.076;25.626;2023-02-18T07:13:01;99717.44;;;6.80;76.71
11605;BME280;5858;43.076;25.626;2023-02-18T07:15:29;99719.81;;;6.83;75.81
11605;BME280;5858;43.076;25.626;2023-02-18T07:18:01;99650.91;;;6.62;74.85
11605;BME280;5858;43.076;25.626;2023-02-18T07:20:29;99698.84;;;6.98;74.97
11605;BME280;5858;43.076;25.626;2023-02-18T07:22:56;99586.19;;;6.36;75.12
11605;BME280;5858;43.076;25.626;2023-02-18T07:25:23;99700.44;;;7.08;75.36
11605;BME280;5858;43.076;25.626;2023-02-18T07:27:51;99605.19;;;6.58;75.09
11605;BME280;5858;43.076;25.626;2023-02-18T07:30:19;99659.69;;;7.08;75.92
11605;BME280;5858;43.076;25.626;2023-02-18T07:32:46;99540.22;;;6.61;75.39
11605;BME280;5858;43.076;25.626;2023-02-18T07:35:16;99668.38;;;7.53;75.37
11605;BME280;5858;43.076;25.626;2023-02-18T07:37:44;99721.78;;;8.13;75.04
11605;BME280;5858;43.076;25.626;2023-02-18T07:40:14;99686.28;;;8.13;74.57
11605;BME280;5858;43.076;25.626;2023-02-18T07:42:41;99546.66;;;7.64;74.10
11605;BME280;5858;43.076;25.626;2023-02-18T07:45:09;99715.13;;;8.86;73.55
11605;BME280;5858;43.076;25.626;2023-02-18T07:47:36;99670.56;;;8.70;71.94
11605;BME280;5858;43.076;25.626;2023-02-18T07:50:04;99725.88;;;9.10;71.76
11605;BME280;5858;43.076;25.626;2023-02-18T07:52:33;99750.91;;;9.17;71.30
11605;BME280;5858;43.076;25.626;2023-02-18T07:55:00;99711.03;;;9.24;71.17
11605;BME280;5858;43.076;25.626;2023-02-18T07:57:28;99711.38;;;9.37;70.70
11605;BME280;5858;43.076;25.626;2023-02-18T07:59:55;99705.19;;;9.44;68.02
11605;BME280;5858;43.076;25.626;2023-02-18T08:05:51;99717.88;;;10.07;65.97
11605;BME280;5858;43.076;25.626;2023-02-18T08:08:22;99627.91;;;9.67;64.68
11605;BME280;5858;43.076;25.626;2023-02-18T08:10:50;99602.16;;;9.74;61.15
11605;BME280;5858;43.076;25.626;2023-02-18T08:13:21;99701.06;;;10.54;59.99
11605;BME280;5858;43.076;25.626;2023-02-18T08:15:49;99571.88;;;9.98;57.21
11605;BME280;5858;43.076;25.626;2023-02-18T08:18:18;99686.88;;;10.77;58.69
11605;BME280;5858;43.076;25.626;2023-02-18T08:20:48;99726.72;;;11.11;60.91
11605;BME280;5858;43.076;25.626;2023-02-18T08:23:19;99737.00;;;11.22;60.52
11605;BME280;5858;43.076;25.626;2023-02-18T08:25:53;99690.00;;;11.19;61.69
11605;BME280;5858;43.076;25.626;2023-02-18T08:28:22;99618.06;;;10.85;61.82
11605;BME280;5858;43.076;25.626;2023-02-18T08:30:50;99639.16;;;11.11;60.91
11605;BME280;5858;43.076;25.626;2023-02-18T08:33:19;99715.94;;;11.64;58.45
11605;BME280;5858;43.076;25.626;2023-02-18T08:35:48;99667.66;;;11.50;58.85
11605;BME280;5858;43.076;25.626;2023-02-18T08:38:15;99678.06;;;11.67;59.14
11605;BME280;5858;43.076;25.626;2023-02-18T08:40:44;99668.25;;;11.83;58.82
11605;BME280;5858;43.076;25.626;2023-02-18T08:43:14;99610.56;;;11.64;57.34
11605;BME280;5858;43.076;25.626;2023-02-18T08:45:45;99667.06;;;12.00;57.63
11605;BME280;5858;43.076;25.626;2023-02-18T08:48:13;99636.63;;;11.93;57.36
11605;BME280;5858;43.076;25.626;2023-02-18T08:50:40;99671.50;;;12.37;54.51
11605;BME280;5858;43.076;25.626;2023-02-18T08:53:08;99656.31;;;12.44;53.20
11605;BME280;5858;43.076;25.626;2023-02-18T08:55:35;99707.91;;;12.76;51.64
11605;BME280;5858;43.076;25.626;2023-02-18T08:58:09;99552.47;;;11.94;50.88
11605;BME280;5858;43.076;25.626;2023-02-18T09:00:38;99652.75;;;12.73;49.95
11605;BME280;5858;43.076;25.626;2023-02-18T09:03:22;99685.53;;;13.19;50.75
11605;BME280;5858;43.076;25.626;2023-02-18T09:05:49;99688.13;;;13.28;49.94
11605;BME280;5858;43.076;25.626;2023-02-18T09:08:20;99690.88;;;13.34;49.24
11605;BME280;5858;43.076;25.626;2023-02-18T09:10:49;99652.53;;;13.11;47.38
11605;BME280;5858;43.076;25.626;2023-02-18T09:13:21;99516.63;;;12.52;46.20
11605;BME280;5858;43.076;25.626;2023-02-18T09:15:55;99673.03;;;13.54;45.71
11605;BME280;5858;43.076;25.626;2023-02-18T09:18:23;99588.25;;;13.09;44.58
11605;BME280;5858;43.076;25.626;2023-02-18T09:20:50;99679.09;;;13.84;42.92
11605;BME280;5858;43.076;25.626;2023-02-18T09:23:18;99540.50;;;13.26;42.82
11605;BME280;5858;43.076;25.626;2023-02-18T09:25:45;99642.44;;;14.11;42.45
11605;BME280;5858;43.076;25.626;2023-02-18T09:28:13;99583.59;;;14.02;40.87
11605;BME280;5858;43.076;25.626;2023-02-18T09:30:41;99673.25;;;14.78;41.07
11605;BME280;5858;43.076;25.626;2023-02-18T09:33:08;99670.75;;;14.76;40.93
11605;BME280;5858;43.076;25.626;2023-02-18T09:35:38;99647.56;;;14.75;39.52
11605;BME280;5858;43.076;25.626;2023-02-18T09:38:05;99515.13;;;14.17;40.03
11605;BME280;5858;43.076;25.626;2023-02-18T09:40:33;99603.66;;;14.88;39.98
11605;BME280;5858;43.076;25.626;2023-02-18T09:43:05;99644.97;;;15.28;39.18
11605;BME280;5858;43.076;25.626;2023-02-18T09:45:32;99590.81;;;15.10;38.79
11605;BME280;5858;43.076;25.626;2023-02-18T09:48:02;99607.25;;;15.35;38.43
11605;BME280;5858;43.076;25.626;2023-02-18T09:50:31;99681.09;;;16.06;38.21
11605;BME280;5858;43.076;25.626;2023-02-18T09:53:01;99693.78;;;16.06;37.67
11605;BME280;5858;43.076;25.626;2023-02-18T09:55:30;99695.25;;;16.15;37.53
11605;BME280;5858;43.076;25.626;2023-02-18T09:58:01;99523.03;;;15.33;37.26
11605;BME280;5858;43.076;25.626;2023-02-18T10:00:31;99638.94;;;16.25;37.49
11605;BME280;5858;43.076;25.626;2023-02-18T10:03:05;99639.56;;;16.27;36.59
11605;BME280;5858;43.076;25.626;2023-02-18T10:05:35;99617.53;;;16.24;36.71
11605;BME280;5858;43.076;25.626;2023-02-18T10:08:06;99514.72;;;15.67;37.87
11605;BME280;5858;43.076;25.626;2023-02-18T10:10:39;99513.47;;;15.50;36.62
11605;BME280;5858;43.076;25.626;2023-02-18T10:13:12;99513.47;;;15.43;36.85
11605;BME280;5858;43.076;25.626;2023-02-18T10:15:41;99678.59;;;16.31;37.12
11605;BME280;5858;43.076;25.626;2023-02-18T10:18:20;99660.16;;;16.15;37.40
11605;BME280;5858;43.076;25.626;2023-02-18T10:20:49;99600.59;;;15.90;37.02
11605;BME280;5858;43.076;25.626;2023-02-18T10:23:19;99632.13;;;16.10;37.14
11605;BME280;5858;43.076;25.626;2023-02-18T10:25:47;99616.53;;;16.18;37.62
11605;BME280;5858;43.076;25.626;2023-02-18T10:28:20;99648.50;;;16.21;37.36
11605;BME280;5858;43.076;25.626;2023-02-18T10:30:54;99559.34;;;15.70;36.66
11605;BME280;5858;43.076;25.626;2023-02-18T10:33:32;99675.19;;;16.49;37.22
11605;BME280;5858;43.076;25.626;2023-02-18T10:36:16;99644.09;;;16.33;36.64
11605;BME280;5858;43.076;25.626;2023-02-18T10:42:04;99650.25;;;16.60;36.61
11605;BME280;5858;43.076;25.626;2023-02-18T10:44:44;99612.06;;;16.44;36.94
11605;BME280;5858;43.076;25.626;2023-02-18T10:47:24;99633.59;;;16.70;36.54
11605;BME280;5858;43.076;25.626;2023-02-18T10:49:59;99637.09;;;16.77;35.98
11605;BME280;5858;43.076;25.626;2023-02-18T10:52:32;99637.91;;;16.84;36.02
11605;BME280;5858;43.076;25.626;2023-02-18T10:55:03;99585.84;;;16.51;36.15
11605;BME280;5858;43.076;25.626;2023-02-18T10:57:32;99544.31;;;16.45;36.46
11605;BME280;5858;43.076;25.626;2023-02-18T11:00:01;99588.63;;;16.82;36.75
11605;BME280;5858;43.076;25.626;2023-02-18T11:02:40;99540.97;;;16.56;36.21
11605;BME280;5858;43.076;25.626;2023-02-18T11:05:21;99615.31;;;17.10;35.87
11605;BME280;5858;43.076;25.626;2023-02-18T11:07:51;99604.31;;;16.98;35.70
11605;BME280;5858;43.076;25.626;2023-02-18T11:10:23;99552.78;;;16.55;35.23
11605;BME280;5858;43.076;25.626;2023-02-18T11:12:55;99578.97;;;16.61;34.53
11605;BME280;5858;43.076;25.626;2023-02-18T11:15:56;99522.41;;;16.22;34.35
11605;BME280;5858;43.076;25.626;2023-02-18T11:18:41;99610.94;;;16.71;34.70
11605;BME280;5858;43.076;25.626;2023-02-18T11:21:29;99434.38;;;15.76;35.03
11605;BME280;5858;43.076;25.626;2023-02-18T11:24:19;99491.09;;;16.14;35.18
11605;BME280;5858;43.076;25.626;2023-02-18T11:33:57;99472.31;;;16.32;35.20
11605;BME280;5858;43.076;25.626;2023-02-18T11:36:30;99574.84;;;16.90;34.66
11605;BME280;5858;43.076;25.626;2023-02-18T11:39:03;99471.59;;;16.12;34.78
11605;BME280;5858;43.076;25.626;2023-02-18T11:42:13;99405.31;;;15.78;34.92
11605;BME280;5858;43.076;25.626;2023-02-18T11:48:22;99422.66;;;15.95;35.37
11605;BME280;5858;43.076;25.626;2023-02-18T11:50:51;99475.09;;;16.19;35.47
11605;BME280;5858;43.076;25.626;2023-02-18T11:53:38;99511.44;;;16.55;35.56
11605;BME280;5858;43.076;25.626;2023-02-18T11:56:16;99513.91;;;16.63;36.06
11605;BME280;5858;43.076;25.626;2023-02-18T11:58:47;99515.88;;;16.43;36.60
11605;BME280;5858;43.076;25.626;2023-02-18T12:01:19;99573.81;;;16.91;37.30
11605;BME280;5858;43.076;25.626;2023-02-18T12:03:54;99544.06;;;16.53;37.11
11605;BME280;5858;43.076;25.626;2023-02-18T12:06:31;99575.69;;;16.91;37.39
11605;BME280;5858;43.076;25.626;2023-02-18T12:09:05;99530.97;;;16.57;37.08
11605;BME280;5858;43.076;25.626;2023-02-18T12:11:38;99462.66;;;16.12;37.36
11605;BME280;5858;43.076;25.626;2023-02-18T12:14:13;99587.09;;;16.93;37.14
11605;BME280;5858;43.076;25.626;2023-02-18T12:16:53;99577.34;;;16.92;37.78
11605;BME280;5858;43.076;25.626;2023-02-18T12:19:41;99558.81;;;16.95;38.03
11605;BME280;5858;43.076;25.626;2023-02-18T12:22:18;99556.88;;;17.03;37.94
11605;BME280;5858;43.076;25.626;2023-02-18T12:24:58;99576.25;;;16.99;38.55
11605;BME280;5858;43.076;25.626;2023-02-18T12:27:52;99486.81;;;16.38;39.33
11605;BME280;5858;43.076;25.626;2023-02-18T12:30:35;99564.03;;;16.90;39.65
11605;BME280;5858;43.076;25.626;2023-02-18T12:33:16;99558.81;;;16.95;40.02
11605;BME280;5858;43.076;25.626;2023-02-18T12:35:59;99563.00;;;16.91;40.49
11605;BME280;5858;43.076;25.626;2023-02-18T12:39:06;99482.09;;;16.65;40.88
11605;BME280;5858;43.076;25.626;2023-02-18T12:41:50;99559.63;;;16.96;40.41
11605;BME280;5858;43.076;25.626;2023-02-18T12:44:33;99363.63;;;16.05;40.90
11605;BME280;5858;43.076;25.626;2023-02-18T12:47:19;99389.41;;;16.33;41.23
11605;BME280;5858;43.076;25.626;2023-02-18T12:50:07;99369.06;;;16.30;41.73
11605;BME280;5858;43.076;25.626;2023-02-18T12:52:56;99468.22;;;16.86;42.08
11605;BME280;5858;43.076;25.626;2023-02-18T12:55:55;99527.22;;;17.21;42.65
11605;BME280;5858;43.076;25.626;2023-02-18T12:58:37;99518.66;;;17.24;42.62
11605;BME280;5858;43.076;25.626;2023-02-18T13:07:07;99505.25;;;17.11;43.37
11605;BME280;5858;43.076;25.626;2023-02-18T13:10:00;99442.00;;;16.62;43.18
11605;BME280;5858;43.076;25.626;2023-02-18T13:12:41;99522.25;;;17.18;43.99
11605;BME280;5858;43.076;25.626;2023-02-18T13:15:17;99479.13;;;16.98;43.50
11605;BME280;5858;43.076;25.626;2023-02-18T13:17:46;99470.47;;;16.89;43.78
11605;BME280;5858;43.076;25.626;2023-02-18T13:20:20;99375.31;;;16.31;44.09
11605;BME280;5858;43.076;25.626;2023-02-18T13:22:49;99526.22;;;17.15;44.59
11605;BME280;5858;43.076;25.626;2023-02-18T13:25:18;99391.94;;;16.28;45.24
11605;BME280;5858;43.076;25.626;2023-02-18T13:27:52;99454.88;;;16.66;46.06
11605;BME280;5858;43.076;25.626;2023-02-18T13:30:33;99491.28;;;16.89;46.30
11605;BME280;5858;43.076;25.626;2023-02-18T13:33:12;99525.91;;;17.05;46.48
11605;BME280;5858;43.076;25.626;2023-02-18T13:35:48;99524.09;;;16.92;46.42
11605;BME280;5858;43.076;25.626;2023-02-18T13:41:27;99451.75;;;16.63;46.33
11605;BME280;5858;43.076;25.626;2023-02-18T13:43:54;99410.13;;;16.39;45.97
11605;BME280;5858;43.076;25.626;2023-02-18T13:46:24;99428.94;;;16.52;46.50
11605;BME280;5858;43.076;25.626;2023-02-18T13:48:54;99503.31;;;16.93;46.15
11605;BME280;5858;43.076;25.626;2023-02-18T13:51:32;99468.19;;;16.61;46.37
11605;BME280;5858;43.076;25.626;2023-02-18T13:54:19;99335.16;;;15.78;46.34
11605;BME280;5858;43.076;25.626;2023-02-18T13:56:57;99396.09;;;16.30;46.20
11605;BME280;5858;43.076;25.626;2023-02-18T13:59:32;99473.03;;;16.46;46.56
11605;BME280;5858;43.076;25.626;2023-02-18T14:02:32;99439.41;;;16.42;46.09
11605;BME280;5858;43.076;25.626;2023-02-18T14:05:20;99469.59;;;16.71;46.70
11605;BME280;5858;43.076;25.626;2023-02-18T14:08:07;99495.78;;;16.70;46.42